Budapest, Hungary

11:15 AM CEST on July 29, 2016 (GMT +0200)
Budapest - Taborhegy | | Change Station

Elev 492 ft 47.55 °N, 19.03 °E | Updated 40 days ago

Clear
Clear
82 °F
Feels Like 84 °F
N
7
Wind Variable Wind from WNW
Gusts mph

Today
High -- | Low -- °F
--% Chance of Precip.
Yesterday
High -- | Low -- °F
Precip. -- in
Pressure 29.98 in
Visibility 6.2 miles
Clouds Few 2500 ft
Heat Index 84 °F
Dew Point 65 °F
Humidity 55%
Rainfall in
Snow Depth Not available.
5:18 AM 8:21 PM
Waning Crescent, 23% visible
METAR LHBP 290900Z 29005KT 9999 FEW025 26/19 Q1015 NOSIG
Pressure 29.98 in
Visibility 6.2 miles
Clouds Few 2500 ft
Heat Index 84 °F
Dew Point 65 °F
Humidity 55%
Rainfall in
Snow Depth Not available.
5:18 AM 8:21 PM
Waning Crescent, 23% visible
METAR LHBP 290900Z 29005KT 9999 FEW025 26/19 Q1015 NOSIG

10-Day Weather Forecast

×

Almanac

Astronomy

Jul. 29, 2016 Rise Set
Actual Time
Civil Twilight
Nautical Twilight
Astronomical Twilight
Moon
Length of Visible Light
Length of Day
Tomorrow will be .
, % of the Moon is Illuminated

Today's Extremes

Country Highs Country Lows

Community

WunderPhotos

Upload Photos

1,928,300 photos uploaded!

WunderBlog® & News

Nearby

Air Quality

  Air Quality AQ Index Pollutant
Not available.

Snow Depth

Station Depth Elevation

Earthquake Activity

City Distance Mag. Time & Date
Minimum magnitude displayed is 2.5.

Coastal Water Temperatures

Place Temperature

Stations

Nearby Weather Stations

Station Location Temp. Windchill Dew Point Humidity Wind Precip. Elev Updated Type